Webcam

2016/09/30 23:20 EBBR 302320Z 19005KT 9999 -RA NSC 13/11 Q1012 NOSIG

Webcam image

--- Refresh now ---